Tarrs, Pennsylvania
Current Conditions -  °F | °C
As of 9:50 PM on Sunday 23 Nov 2014 (Local Time) from KLBE Reporting Station
Light Rain Light Rain  
Wind Chill: 54°   Ceiling: 4500
Heat Index: 54°   Visibility: 10mi
Dew Point: 46°   Wind: 12mph
Humidity: 77%   Direction: 150°SSE
Pressure: 29.7"   Gusts: 23mph
Location:  40.17°N, 79.6°W
Report Text: KLBE 240250Z 15010G20KT 10SM -RA BKN045 OVC090 12/08 A2970
Loading
Personal Weather Stations






























Interactive Weather Map New forecast layout! Learn more

10-Day Weather Forecast

Advertisements
Track Severe Weather on mobile